sensor_id;sensor_type;location;lat;lon;timestamp;pressure;altitude;pressure_sealevel;temperature;humidity
71573;BME280;59408;51.032;9.410;2023-03-15T00:01:19;98501.19;;;-0.03;84.48
71573;BME280;59408;51.032;9.410;2023-03-15T00:03:46;98517.03;;;-0.07;85.06
71573;BME280;59408;51.032;9.410;2023-03-15T00:06:14;98522.69;;;-0.08;85.32
71573;BME280;59408;51.032;9.410;2023-03-15T00:08:40;98524.81;;;-0.05;83.99
71573;BME280;59408;51.032;9.410;2023-03-15T00:11:08;98521.38;;;-0.11;84.94
71573;BME280;59408;51.032;9.410;2023-03-15T00:13:35;98523.28;;;-0.16;84.87
71573;BME280;59408;51.032;9.410;2023-03-15T00:16:01;98521.22;;;-0.25;85.67
71573;BME280;59408;51.032;9.410;2023-03-15T00:18:28;98520.69;;;-0.27;85.84
71573;BME280;59408;51.032;9.410;2023-03-15T00:20:55;98523.94;;;-0.30;86.83
71573;BME280;59408;51.032;9.410;2023-03-15T00:23:22;98526.66;;;-0.35;86.89
71573;BME280;59408;51.032;9.410;2023-03-15T00:25:50;98518.88;;;-0.36;86.72
71573;BME280;59408;51.032;9.410;2023-03-15T00:28:19;98524.25;;;-0.36;86.90
71573;BME280;59408;51.032;9.410;2023-03-15T00:30:45;98530.47;;;-0.41;86.79
71573;BME280;59408;51.032;9.410;2023-03-15T00:33:13;98521.94;;;-0.48;86.93
71573;BME280;59408;51.032;9.410;2023-03-15T00:35:41;98530.00;;;-0.53;87.53
71573;BME280;59408;51.032;9.410;2023-03-15T00:38:09;98534.28;;;-0.52;87.26
71573;BME280;59408;51.032;9.410;2023-03-15T00:40:36;98539.69;;;-0.57;87.61
71573;BME280;59408;51.032;9.410;2023-03-15T00:43:03;98542.63;;;-0.58;87.97
71573;BME280;59408;51.032;9.410;2023-03-15T00:45:31;98549.91;;;-0.64;88.47
71573;BME280;59408;51.032;9.410;2023-03-15T00:47:58;98548.28;;;-0.60;88.10
71573;BME280;59408;51.032;9.410;2023-03-15T00:50:25;98549.41;;;-0.66;88.66
71573;BME280;59408;51.032;9.410;2023-03-15T00:52:51;98544.06;;;-0.71;88.81
71573;BME280;59408;51.032;9.410;2023-03-15T00:55:18;98548.91;;;-0.73;89.08
71573;BME280;59408;51.032;9.410;2023-03-15T00:57:45;98550.25;;;-0.76;89.20
71573;BME280;59408;51.032;9.410;2023-03-15T01:00:14;98551.06;;;-0.80;89.31
71573;BME280;59408;51.032;9.410;2023-03-15T01:02:42;98550.03;;;-0.89;90.07
71573;BME280;59408;51.032;9.410;2023-03-15T01:05:09;98554.91;;;-0.96;90.74
71573;BME280;59408;51.032;9.410;2023-03-15T01:07:35;98555.97;;;-0.97;90.41
71573;BME280;59408;51.032;9.410;2023-03-15T01:10:04;98549.03;;;-0.98;90.51
71573;BME280;59408;51.032;9.410;2023-03-15T01:12:31;98549.81;;;-0.98;90.11
71573;BME280;59408;51.032;9.410;2023-03-15T01:14:58;98559.47;;;-0.97;90.41
71573;BME280;59408;51.032;9.410;2023-03-15T01:17:25;98556.78;;;-0.92;89.70
71573;BME280;59408;51.032;9.410;2023-03-15T01:19:53;98552.19;;;-0.86;89.39
71573;BME280;59408;51.032;9.410;2023-03-15T01:22:20;98566.63;;;-0.87;88.91
71573;BME280;59408;51.032;9.410;2023-03-15T01:24:46;98566.09;;;-0.89;89.27
71573;BME280;59408;51.032;9.410;2023-03-15T01:27:13;98563.41;;;-0.84;88.94
71573;BME280;59408;51.032;9.410;2023-03-15T01:29:40;98555.91;;;-0.82;88.38
71573;BME280;59408;51.032;9.410;2023-03-15T01:32:07;98557.00;;;-0.83;88.92
71573;BME280;59408;51.032;9.410;2023-03-15T01:34:34;98558.28;;;-0.76;88.31
71573;BME280;59408;51.032;9.410;2023-03-15T01:37:02;98564.97;;;-0.78;88.44
71573;BME280;59408;51.032;9.410;2023-03-15T01:39:29;98556.69;;;-0.82;88.68
71573;BME280;59408;51.032;9.410;2023-03-15T01:41:56;98567.66;;;-0.78;88.50
71573;BME280;59408;51.032;9.410;2023-03-15T01:44:23;98565.25;;;-0.80;88.44
71573;BME280;59408;51.032;9.410;2023-03-15T01:46:50;98562.31;;;-0.78;87.93
71573;BME280;59408;51.032;9.410;2023-03-15T01:49:18;98567.91;;;-0.75;88.17
71573;BME280;59408;51.032;9.410;2023-03-15T01:51:51;98577.03;;;-0.76;88.17
71573;BME280;59408;51.032;9.410;2023-03-15T01:54:22;98571.88;;;-0.67;87.13
71573;BME280;59408;51.032;9.410;2023-03-15T01:56:54;98574.03;;;-0.64;87.27
71573;BME280;59408;51.032;9.410;2023-03-15T01:59:25;98578.25;;;-0.58;86.88
71573;BME280;59408;51.032;9.410;2023-03-15T02:01:53;98583.63;;;-0.58;87.01
71573;BME280;59408;51.032;9.410;2023-03-15T02:04:24;98586.81;;;-0.56;87.18
71573;BME280;59408;51.032;9.410;2023-03-15T02:06:56;98595.66;;;-0.55;87.60
71573;BME280;59408;51.032;9.410;2023-03-15T02:09:30;98592.13;;;-0.51;86.97
71573;BME280;59408;51.032;9.410;2023-03-15T02:11:59;98592.13;;;-0.51;86.85
71573;BME280;59408;51.032;9.410;2023-03-15T02:14:27;98595.38;;;-0.54;87.47
71573;BME280;59408;51.032;9.410;2023-03-15T02:16:54;98594.00;;;-0.51;87.14
71573;BME280;59408;51.032;9.410;2023-03-15T02:19:31;98590.00;;;-0.49;87.41
71573;BME280;59408;51.032;9.410;2023-03-15T02:22:07;98589.44;;;-0.46;86.11
71573;BME280;59408;51.032;9.410;2023-03-15T02:24:46;98587.03;;;-0.47;87.18
71573;BME280;59408;51.032;9.410;2023-03-15T02:27:21;98584.63;;;-0.49;86.79
71573;BME280;59408;51.032;9.410;2023-03-15T02:29:50;98585.97;;;-0.46;87.07
71573;BME280;59408;51.032;9.410;2023-03-15T02:32:16;98583.28;;;-0.46;87.17
71573;BME280;59408;51.032;9.410;2023-03-15T02:34:43;98575.78;;;-0.49;87.29
71573;BME280;59408;51.032;9.410;2023-03-15T02:37:10;98569.91;;;-0.51;87.78
71573;BME280;59408;51.032;9.410;2023-03-15T02:39:36;98581.69;;;-0.52;87.10
71573;BME280;59408;51.032;9.410;2023-03-15T02:42:03;98583.28;;;-0.46;86.49
71573;BME280;59408;51.032;9.410;2023-03-15T02:44:33;98584.34;;;-0.47;87.24
71573;BME280;59408;51.032;9.410;2023-03-15T02:47:04;98590.53;;;-0.47;87.44
71573;BME280;59408;51.032;9.410;2023-03-15T02:49:36;98590.53;;;-0.47;87.79
71573;BME280;59408;51.032;9.410;2023-03-15T02:52:05;98592.13;;;-0.51;88.16
71573;BME280;59408;51.032;9.410;2023-03-15T02:54:31;98589.72;;;-0.47;87.80
71573;BME280;59408;51.032;9.410;2023-03-15T02:56:58;98589.16;;;-0.44;87.95
71573;BME280;59408;51.032;9.410;2023-03-15T02:59:25;98600.38;;;-0.42;88.24
71573;BME280;59408;51.032;9.410;2023-03-15T03:01:53;98593.44;;;-0.43;88.67
71573;BME280;59408;51.032;9.410;2023-03-15T03:04:19;98603.59;;;-0.40;88.08
71573;BME280;59408;51.032;9.410;2023-03-15T03:06:46;98605.16;;;-0.34;88.14
71573;BME280;59408;51.032;9.410;2023-03-15T03:09:13;98608.31;;;-0.27;87.45
71573;BME280;59408;51.032;9.410;2023-03-15T03:11:39;98608.31;;;-0.22;87.21
71573;BME280;59408;51.032;9.410;2023-03-15T03:14:06;98610.72;;;-0.20;86.43
71573;BME280;59408;51.032;9.410;2023-03-15T03:16:33;98611.72;;;-0.16;86.32
71573;BME280;59408;51.032;9.410;2023-03-15T03:19:01;98619.53;;;-0.20;86.00
71573;BME280;59408;51.032;9.410;2023-03-15T03:21:27;98610.94;;;-0.17;85.65
71573;BME280;59408;51.032;9.410;2023-03-15T03:23:54;98618.38;;;-0.09;85.28
71573;BME280;59408;51.032;9.410;2023-03-15T03:26:21;98625.25;;;0.02;83.29
71573;BME280;59408;51.032;9.410;2023-03-15T03:28:47;98622.84;;;0.01;83.99
71573;BME280;59408;51.032;9.410;2023-03-15T03:31:16;98623.66;;;0.01;83.94
71573;BME280;59408;51.032;9.410;2023-03-15T03:33:42;98630.41;;;-0.01;84.38
71573;BME280;59408;51.032;9.410;2023-03-15T03:36:11;98650.53;;;-0.04;85.99
71573;BME280;59408;51.032;9.410;2023-03-15T03:38:38;98652.94;;;-0.02;85.83
71573;BME280;59408;51.032;9.410;2023-03-15T03:41:05;98652.66;;;-0.06;87.73
71573;BME280;59408;51.032;9.410;2023-03-15T03:43:32;98658.09;;;-0.11;88.83
71573;BME280;59408;51.032;9.410;2023-03-15T03:45:58;98649.53;;;-0.18;90.38
71573;BME280;59408;51.032;9.410;2023-03-15T03:48:25;98647.69;;;-0.22;91.22
71573;BME280;59408;51.032;9.410;2023-03-15T03:50:52;98635.13;;;-0.27;91.90
71573;BME280;59408;51.032;9.410;2023-03-15T03:53:19;98638.63;;;-0.32;92.25
71573;BME280;59408;51.032;9.410;2023-03-15T03:55:46;98647.22;;;-0.35;92.68
71573;BME280;59408;51.032;9.410;2023-03-15T03:58:13;98655.25;;;-0.35;93.11
71573;BME280;59408;51.032;9.410;2023-03-15T04:00:40;98651.78;;;-0.35;93.16
71573;BME280;59408;51.032;9.410;2023-03-15T04:03:07;98661.69;;;-0.36;93.22
71573;BME280;59408;51.032;9.410;2023-03-15T04:05:34;98665.47;;;-0.37;93.35
71573;BME280;59408;51.032;9.410;2023-03-15T04:08:00;98672.72;;;-0.37;93.39
71573;BME280;59408;51.032;9.410;2023-03-15T04:10:28;98680.75;;;-0.37;93.03
71573;BME280;59408;51.032;9.410;2023-03-15T04:12:56;98676.44;;;-0.33;93.36
71573;BME280;59408;51.032;9.410;2023-03-15T04:15:23;98685.00;;;-0.31;92.66
71573;BME280;59408;51.032;9.410;2023-03-15T04:17:50;98689.50;;;-0.27;92.32
71573;BME280;59408;51.032;9.410;2023-03-15T04:20:17;98694.38;;;-0.29;91.90
71573;BME280;59408;51.032;9.410;2023-03-15T04:22:43;98701.34;;;-0.28;92.55
71573;BME280;59408;51.032;9.410;2023-03-15T04:25:10;98709.66;;;-0.29;92.18
71573;BME280;59408;51.032;9.410;2023-03-15T04:27:38;98705.34;;;-0.30;92.60
71573;BME280;59408;51.032;9.410;2023-03-15T04:30:05;98719.03;;;-0.32;93.31
71573;BME280;59408;51.032;9.410;2023-03-15T04:32:32;98711.78;;;-0.31;93.81
71573;BME280;59408;51.032;9.410;2023-03-15T04:34:59;98713.66;;;-0.32;94.10
71573;BME280;59408;51.032;9.410;2023-03-15T04:37:26;98718.75;;;-0.30;94.37
71573;BME280;59408;51.032;9.410;2023-03-15T04:39:52;98712.59;;;-0.36;95.12
71573;BME280;59408;51.032;9.410;2023-03-15T04:42:19;98710.50;;;-0.39;96.12
71573;BME280;59408;51.032;9.410;2023-03-15T04:44:47;98715.59;;;-0.42;96.72
71573;BME280;59408;51.032;9.410;2023-03-15T04:47:14;98715.09;;;-0.49;97.69
71573;BME280;59408;51.032;9.410;2023-03-15T04:49:41;98718.84;;;-0.50;98.04
71573;BME280;59408;51.032;9.410;2023-03-15T04:52:07;98713.22;;;-0.49;97.97
71573;BME280;59408;51.032;9.410;2023-03-15T04:54:34;98722.31;;;-0.50;98.29
71573;BME280;59408;51.032;9.410;2023-03-15T04:57:00;98719.09;;;-0.52;98.56
71573;BME280;59408;51.032;9.410;2023-03-15T04:59:27;98724.47;;;-0.52;98.88
71573;BME280;59408;51.032;9.410;2023-03-15T05:01:55;98725.53;;;-0.53;98.90
71573;BME280;59408;51.032;9.410;2023-03-15T05:04:22;98727.69;;;-0.50;98.61
71573;BME280;59408;51.032;9.410;2023-03-15T05:06:49;98735.19;;;-0.52;99.27
71573;BME280;59408;51.032;9.410;2023-03-15T05:09:15;98736.78;;;-0.51;99.43
71573;BME280;59408;51.032;9.410;2023-03-15T05:11:42;98737.06;;;-0.47;99.71
71573;BME280;59408;51.032;9.410;2023-03-15T05:14:08;98739.72;;;-0.47;100.00
71573;BME280;59408;51.032;9.410;2023-03-15T05:16:35;98744.25;;;-0.43;100.00
71573;BME280;59408;51.032;9.410;2023-03-15T05:19:03;98741.31;;;-0.41;100.00
71573;BME280;59408;51.032;9.410;2023-03-15T05:21:30;98743.44;;;-0.43;100.00
71573;BME280;59408;51.032;9.410;2023-03-15T05:23:56;98748.81;;;-0.43;100.00
71573;BME280;59408;51.032;9.410;2023-03-15T05:26:23;98757.66;;;-0.43;100.00
71573;BME280;59408;51.032;9.410;2023-03-15T05:28:50;98748.81;;;-0.43;100.00
71573;BME280;59408;51.032;9.410;2023-03-15T05:31:16;98749.88;;;-0.44;100.00
71573;BME280;59408;51.032;9.410;2023-03-15T05:33:43;98764.09;;;-0.44;100.00
71573;BME280;59408;51.032;9.410;2023-03-15T05:36:11;98757.13;;;-0.40;100.00
71573;BME280;59408;51.032;9.410;2023-03-15T05:38:38;98760.06;;;-0.41;100.00
71573;BME280;59408;51.032;9.410;2023-03-15T05:41:04;98760.88;;;-0.41;100.00
71573;BME280;59408;51.032;9.410;2023-03-15T05:43:31;98767.28;;;-0.42;100.00
71573;BME280;59408;51.032;9.410;2023-03-15T05:45:57;98776.13;;;-0.41;100.00
71573;BME280;59408;51.032;9.410;2023-03-15T05:48:24;98776.94;;;-0.41;100.00
71573;BME280;59408;51.032;9.410;2023-03-15T05:50:51;98771.31;;;-0.39;100.00
71573;BME280;59408;51.032;9.410;2023-03-15T05:53:19;98772.13;;;-0.39;100.00
71573;BME280;59408;51.032;9.410;2023-03-15T05:55:45;98780.97;;;-0.38;100.00
71573;BME280;59408;51.032;9.410;2023-03-15T05:58:12;98787.91;;;-0.37;100.00
71573;BME280;59408;51.032;9.410;2023-03-15T06:00:39;98781.75;;;-0.38;100.00
71573;BME280;59408;51.032;9.410;2023-03-15T06:03:05;98777.72;;;-0.35;100.00
71573;BME280;59408;51.032;9.410;2023-03-15T06:05:32;98779.31;;;-0.34;100.00
71573;BME280;59408;51.032;9.410;2023-03-15T06:07:58;98793.78;;;-0.35;100.00
71573;BME280;59408;51.032;9.410;2023-03-15T06:10:27;98791.69;;;-0.38;100.00
71573;BME280;59408;51.032;9.410;2023-03-15T06:12:53;98790.03;;;-0.34;100.00
71573;BME280;59408;51.032;9.410;2023-03-15T06:15:20;98798.59;;;-0.32;100.00
71573;BME280;59408;51.032;9.410;2023-03-15T06:17:46;98797.00;;;-0.28;100.00
71573;BME280;59408;51.032;9.410;2023-03-15T06:20:14;98810.66;;;-0.30;100.00
71573;BME280;59408;51.032;9.410;2023-03-15T06:22:41;98820.31;;;-0.29;100.00
71573;BME280;59408;51.032;9.410;2023-03-15T06:25:08;98810.38;;;-0.23;100.00
71573;BME280;59408;51.032;9.410;2023-03-15T06:27:36;98820.28;;;-0.23;100.00
71573;BME280;59408;51.032;9.410;2023-03-15T06:30:04;98821.91;;;-0.22;100.00
71573;BME280;59408;51.032;9.410;2023-03-15T06:32:31;98824.53;;;-0.17;100.00
71573;BME280;59408;51.032;9.410;2023-03-15T06:34:57;98827.50;;;-0.14;100.00
71573;BME280;59408;51.032;9.410;2023-03-15T06:37:24;98822.13;;;-0.14;100.00
71573;BME280;59408;51.032;9.410;2023-03-15T06:40:00;98832.31;;;-0.11;100.00
71573;BME280;59408;51.032;9.410;2023-03-15T06:42:26;98839.78;;;-0.08;100.00
71573;BME280;59408;51.032;9.410;2023-03-15T06:44:54;98834.97;;;-0.06;100.00
71573;BME280;59408;51.032;9.410;2023-03-15T06:47:21;98837.09;;;-0.03;100.00
71573;BME280;59408;51.032;9.410;2023-03-15T06:49:48;98834.38;;;0.02;100.00
71573;BME280;59408;51.032;9.410;2023-03-15T06:52:14;98846.97;;;0.07;100.00
71573;BME280;59408;51.032;9.410;2023-03-15T06:54:41;98852.34;;;0.07;100.00
71573;BME280;59408;51.032;9.410;2023-03-15T06:57:08;98860.13;;;0.08;100.00
71573;BME280;59408;51.032;9.410;2023-03-15T06:59:34;98847.53;;;0.09;100.00
71573;BME280;59408;51.032;9.410;2023-03-15T07:02:02;98863.59;;;0.09;100.00
71573;BME280;59408;51.032;9.410;2023-03-15T07:04:29;98860.13;;;0.08;100.00
71573;BME280;59408;51.032;9.410;2023-03-15T07:06:56;98868.66;;;0.10;100.00
71573;BME280;59408;51.032;9.410;2023-03-15T07:09:22;98869.47;;;0.16;100.00
71573;BME280;59408;51.032;9.410;2023-03-15T07:11:49;98872.91;;;0.22;100.00
71573;BME280;59408;51.032;9.410;2023-03-15T07:14:15;98864.34;;;0.25;100.00
71573;BME280;59408;51.032;9.410;2023-03-15T07:16:42;98867.25;;;0.28;100.00
71573;BME280;59408;51.032;9.410;2023-03-15T07:19:10;98877.97;;;0.33;100.00
71573;BME280;59408;51.032;9.410;2023-03-15T07:21:37;98871.00;;;0.32;100.00
71573;BME280;59408;51.032;9.410;2023-03-15T07:24:04;98882.81;;;0.31;100.00
71573;BME280;59408;51.032;9.410;2023-03-15T07:26:30;98876.09;;;0.29;100.00
71573;BME280;59408;51.032;9.410;2023-03-15T07:28:57;98891.69;;;0.27;100.00
71573;BME280;59408;51.032;9.410;2023-03-15T07:31:23;98888.19;;;0.26;100.00
71573;BME280;59408;51.032;9.410;2023-03-15T07:33:50;98892.22;;;0.24;100.00
71573;BME280;59408;51.032;9.410;2023-03-15T07:36:18;98888.47;;;0.25;100.00
71573;BME280;59408;51.032;9.410;2023-03-15T07:38:45;98906.13;;;0.31;100.00
71573;BME280;59408;51.032;9.410;2023-03-15T07:41:11;98911.78;;;0.29;100.00
71573;BME280;59408;51.032;9.410;2023-03-15T07:43:38;98916.09;;;0.25;100.00
71573;BME280;59408;51.032;9.410;2023-03-15T07:46:04;98921.72;;;0.24;100.00
71573;BME280;59408;51.032;9.410;2023-03-15T07:48:31;98919.34;;;0.12;100.00
71573;BME280;59408;51.032;9.410;2023-03-15T07:50:57;98931.19;;;-0.04;100.00
71573;BME280;59408;51.032;9.410;2023-03-15T07:53:26;98932.00;;;-0.04;100.00
71573;BME280;59408;51.032;9.410;2023-03-15T07:55:53;98932.53;;;-0.02;100.00
71573;BME280;59408;51.032;9.410;2023-03-15T07:58:19;98938.72;;;-0.01;100.00
71573;BME280;59408;51.032;9.410;2023-03-15T08:00:46;98943.03;;;-0.10;100.00
71573;BME280;59408;51.032;9.410;2023-03-15T08:03:13;98947.00;;;-0.08;100.00
71573;BME280;59408;51.032;9.410;2023-03-15T08:05:39;98954.78;;;-0.01;100.00
71573;BME280;59408;51.032;9.410;2023-03-15T08:08:06;98950.75;;;0.06;100.00
71573;BME280;59408;51.032;9.410;2023-03-15T08:10:34;98949.69;;;-0.03;100.00
71573;BME280;59408;51.032;9.410;2023-03-15T08:13:00;98956.41;;;-0.05;100.00
71573;BME280;59408;51.032;9.410;2023-03-15T08:15:27;98955.31;;;-0.04;100.00
71573;BME280;59408;51.032;9.410;2023-03-15T08:17:54;98964.97;;;0.02;100.00
71573;BME280;59408;51.032;9.410;2023-03-15T08:20:20;98966.84;;;-0.04;100.00
71573;BME280;59408;51.032;9.410;2023-03-15T08:22:48;98962.53;;;0.05;100.00
71573;BME280;59408;51.032;9.410;2023-03-15T08:25:17;98954.25;;;0.07;100.00
71573;BME280;59408;51.032;9.410;2023-03-15T08:27:46;98962.75;;;0.24;100.00
71573;BME280;59408;51.032;9.410;2023-03-15T08:30:14;98974.00;;;0.36;100.00
71573;BME280;59408;51.032;9.410;2023-03-15T08:32:42;98970.53;;;0.36;100.00
71573;BME280;59408;51.032;9.410;2023-03-15T08:35:10;98979.41;;;0.26;100.00
71573;BME280;59408;51.032;9.410;2023-03-15T08:37:38;98981.25;;;0.36;100.00
71573;BME280;59408;51.032;9.410;2023-03-15T08:40:06;98988.19;;;0.42;100.00
71573;BME280;59408;51.032;9.410;2023-03-15T08:42:34;98987.31;;;0.57;100.00
71573;BME280;59408;51.032;9.410;2023-03-15T08:45:02;98996.69;;;0.69;100.00
71573;BME280;59408;51.032;9.410;2023-03-15T08:47:29;99000.84;;;0.96;100.00
71573;BME280;59408;51.032;9.410;2023-03-15T08:49:55;99011.00;;;1.04;100.00
71573;BME280;59408;51.032;9.410;2023-03-15T08:52:22;99007.41;;;1.23;100.00
71573;BME280;59408;51.032;9.410;2023-03-15T08:54:49;99011.53;;;1.50;100.00
71573;BME280;59408;51.032;9.410;2023-03-15T08:57:15;99018.63;;;1.70;100.00
71573;BME280;59408;51.032;9.410;2023-03-15T08:59:42;99015.00;;;2.13;100.00
71573;BME280;59408;51.032;9.410;2023-03-15T09:02:10;99019.88;;;2.64;99.90
71573;BME280;59408;51.032;9.410;2023-03-15T09:04:37;99020.31;;;2.71;96.38
71573;BME280;59408;51.032;9.410;2023-03-15T09:07:04;99007.94;;;2.46;96.39
71573;BME280;59408;51.032;9.410;2023-03-15T09:09:30;99014.66;;;2.20;98.01
71573;BME280;59408;51.032;9.410;2023-03-15T09:11:57;99020.56;;;2.22;95.96
71573;BME280;59408;51.032;9.410;2023-03-15T09:14:23;99017.97;;;2.12;97.21
71573;BME280;59408;51.032;9.410;2023-03-15T09:16:50;99014.19;;;2.18;98.16
71573;BME280;59408;51.032;9.410;2023-03-15T09:19:18;99021.75;;;2.11;97.51
71573;BME280;59408;51.032;9.410;2023-03-15T09:21:45;99028.44;;;2.18;98.48
71573;BME280;59408;51.032;9.410;2023-03-15T09:24:12;99027.94;;;2.11;98.14
71573;BME280;59408;51.032;9.410;2023-03-15T09:26:38;99041.38;;;2.16;96.84
71573;BME280;59408;51.032;9.410;2023-03-15T09:29:05;99036.16;;;1.96;96.20
71573;BME280;59408;51.032;9.410;2023-03-15T09:31:32;99029.53;;;1.83;95.83
71573;BME280;59408;51.032;9.410;2023-03-15T09:33:58;99043.03;;;1.78;96.87
71573;BME280;59408;51.032;9.410;2023-03-15T09:36:26;99045.88;;;1.92;95.65
71573;BME280;59408;51.032;9.410;2023-03-15T09:38:53;99048.09;;;2.43;94.44
71573;BME280;59408;51.032;9.410;2023-03-15T09:41:33;99046.38;;;2.75;93.20
71573;BME280;59408;51.032;9.410;2023-03-15T09:44:11;99049.59;;;2.78;92.17
71573;BME280;59408;51.032;9.410;2023-03-15T09:46:46;99060.28;;;3.06;90.91
71573;BME280;59408;51.032;9.410;2023-03-15T09:49:19;99059.38;;;3.54;87.62
71573;BME280;59408;51.032;9.410;2023-03-15T09:51:53;99055.38;;;4.02;85.07
71573;BME280;59408;51.032;9.410;2023-03-15T09:54:22;99047.81;;;4.64;84.42
71573;BME280;59408;51.032;9.410;2023-03-15T09:56:55;99057.63;;;4.87;83.42
71573;BME280;59408;51.032;9.410;2023-03-15T09:59:23;99054.00;;;5.19;82.22
71573;BME280;59408;51.032;9.410;2023-03-15T10:01:54;99053.78;;;5.43;76.74
71573;BME280;59408;51.032;9.410;2023-03-15T10:04:26;99061.03;;;5.56;77.01
71573;BME280;59408;51.032;9.410;2023-03-15T10:06:57;99064.91;;;6.00;75.05
71573;BME280;59408;51.032;9.410;2023-03-15T10:09:28;99063.56;;;5.53;68.81
71573;BME280;59408;51.032;9.410;2023-03-15T10:12:02;99065.03;;;5.23;71.35
71573;BME280;59408;51.032;9.410;2023-03-15T10:14:38;99075.88;;;4.36;69.64
71573;BME280;59408;51.032;9.410;2023-03-15T10:17:11;99067.84;;;4.17;68.08
71573;BME280;59408;51.032;9.410;2023-03-15T10:19:47;99071.38;;;3.99;63.22
71573;BME280;59408;51.032;9.410;2023-03-15T10:22:21;99074.91;;;4.13;64.32
71573;BME280;59408;51.032;9.410;2023-03-15T10:24:53;99079.91;;;4.65;62.94
71573;BME280;59408;51.032;9.410;2023-03-15T10:27:26;99077.13;;;4.84;64.06
71573;BME280;59408;51.032;9.410;2023-03-15T10:29:56;99077.66;;;4.73;62.32
71573;BME280;59408;51.032;9.410;2023-03-15T10:32:27;99069.31;;;4.69;63.41
71573;BME280;59408;51.032;9.410;2023-03-15T10:34:56;99070.75;;;5.08;60.68
71573;BME280;59408;51.032;9.410;2023-03-15T10:37:25;99069.34;;;5.73;57.58
71573;BME280;59408;51.032;9.410;2023-03-15T10:39:54;99080.97;;;6.19;57.03
71573;BME280;59408;51.032;9.410;2023-03-15T10:42:26;99076.56;;;5.64;55.66
71573;BME280;59408;51.032;9.410;2023-03-15T10:44:55;99068.84;;;5.58;58.48
71573;BME280;59408;51.032;9.410;2023-03-15T10:47:23;99076.81;;;5.54;57.02
71573;BME280;59408;51.032;9.410;2023-03-15T10:49:55;99081.13;;;5.42;58.12
71573;BME280;59408;51.032;9.410;2023-03-15T10:52:33;99080.09;;;5.87;57.19
71573;BME280;59408;51.032;9.410;2023-03-15T10:55:03;99075.97;;;6.12;55.83
71573;BME280;59408;51.032;9.410;2023-03-15T10:57:34;99091.00;;;6.18;57.14
71573;BME280;59408;51.032;9.410;2023-03-15T11:00:11;99087.53;;;6.04;55.40
71573;BME280;59408;51.032;9.410;2023-03-15T11:02:48;99087.03;;;6.77;55.23
71573;BME280;59408;51.032;9.410;2023-03-15T11:05:17;99077.94;;;7.30;52.17
71573;BME280;59408;51.032;9.410;2023-03-15T11:07:54;99091.19;;;7.23;55.28
71573;BME280;59408;51.032;9.410;2023-03-15T11:10:23;99076.88;;;6.92;55.43
71573;BME280;59408;51.032;9.410;2023-03-15T11:12:50;99098.94;;;6.37;54.67
71573;BME280;59408;51.032;9.410;2023-03-15T11:15:34;99097.75;;;5.85;57.72
71573;BME280;59408;51.032;9.410;2023-03-15T11:18:00;99099.03;;;5.51;62.88
71573;BME280;59408;51.032;9.410;2023-03-15T11:20:28;99101.75;;;5.37;65.10
71573;BME280;59408;51.032;9.410;2023-03-15T11:22:58;99105.19;;;5.29;60.50
71573;BME280;59408;51.032;9.410;2023-03-15T11:25:29;99106.69;;;5.22;60.54
71573;BME280;59408;51.032;9.410;2023-03-15T11:27:56;99107.41;;;5.14;60.09
71573;BME280;59408;51.032;9.410;2023-03-15T11:30:26;99111.44;;;4.84;61.37
71573;BME280;59408;51.032;9.410;2023-03-15T11:32:54;99112.72;;;4.59;60.40
71573;BME280;59408;51.032;9.410;2023-03-15T11:35:29;99117.25;;;4.77;58.67
71573;BME280;59408;51.032;9.410;2023-03-15T11:38:01;99118.22;;;5.00;59.23
71573;BME280;59408;51.032;9.410;2023-03-15T11:40:42;99120.09;;;6.12;56.75
71573;BME280;59408;51.032;9.410;2023-03-15T11:43:14;99109.63;;;7.04;56.45
71573;BME280;59408;51.032;9.410;2023-03-15T11:45:46;99104.28;;;7.30;54.28
71573;BME280;59408;51.032;9.410;2023-03-15T11:48:19;99114.16;;;7.25;52.62
71573;BME280;59408;51.032;9.410;2023-03-15T11:50:47;99127.69;;;6.77;55.41
71573;BME280;59408;51.032;9.410;2023-03-15T11:53:15;99128.53;;;5.89;55.72
71573;BME280;59408;51.032;9.410;2023-03-15T11:55:47;99129.41;;;5.98;57.68
71573;BME280;59408;51.032;9.410;2023-03-15T11:58:28;99130.78;;;5.95;54.67
71573;BME280;59408;51.032;9.410;2023-03-15T12:01:00;99151.88;;;5.35;54.27
71573;BME280;59408;51.032;9.410;2023-03-15T12:03:38;99136.50;;;5.58;57.34
71573;BME280;59408;51.032;9.410;2023-03-15T12:08:59;99144.81;;;6.56;51.51
71573;BME280;59408;51.032;9.410;2023-03-15T12:11:39;99129.16;;;6.53;51.39
71573;BME280;59408;51.032;9.410;2023-03-15T12:14:24;99140.16;;;6.56;50.81
71573;BME280;59408;51.032;9.410;2023-03-15T12:16:58;99147.38;;;6.16;50.05
71573;BME280;59408;51.032;9.410;2023-03-15T12:19:43;99144.38;;;6.18;54.33
71573;BME280;59408;51.032;9.410;2023-03-15T12:22:14;99134.94;;;6.15;52.49
71573;BME280;59408;51.032;9.410;2023-03-15T12:24:45;99157.00;;;5.86;52.52
71573;BME280;59408;51.032;9.410;2023-03-15T12:27:14;99151.56;;;6.00;55.73
71573;BME280;59408;51.032;9.410;2023-03-15T12:29:43;99155.50;;;6.16;55.48
71573;BME280;59408;51.032;9.410;2023-03-15T12:32:12;99161.31;;;5.87;55.96
71573;BME280;59408;51.032;9.410;2023-03-15T12:34:44;99149.28;;;6.60;56.46
71573;BME280;59408;51.032;9.410;2023-03-15T12:37:14;99152.84;;;6.69;54.36
71573;BME280;59408;51.032;9.410;2023-03-15T12:39:45;99159.44;;;7.56;54.63
71573;BME280;59408;51.032;9.410;2023-03-15T12:45:39;99165.75;;;8.43;51.74
71573;BME280;59408;51.032;9.410;2023-03-15T12:48:26;99163.84;;;8.34;49.48
71573;BME280;59408;51.032;9.410;2023-03-15T12:50:58;99163.03;;;7.74;48.32
71573;BME280;59408;51.032;9.410;2023-03-15T12:53:37;99160.34;;;7.99;50.20
71573;BME280;59408;51.032;9.410;2023-03-15T12:56:24;99153.94;;;7.95;49.46
71573;BME280;59408;51.032;9.410;2023-03-15T12:58:54;99160.94;;;7.71;50.39
71573;BME280;59408;51.032;9.410;2023-03-15T13:01:23;99156.16;;;7.28;50.56
71573;BME280;59408;51.032;9.410;2023-03-15T13:03:53;99168.66;;;7.07;51.61
71573;BME280;59408;51.032;9.410;2023-03-15T13:06:27;99161.78;;;7.32;51.73
71573;BME280;59408;51.032;9.410;2023-03-15T13:09:01;99170.03;;;7.75;51.38
71573;BME280;59408;51.032;9.410;2023-03-15T13:11:32;99173.28;;;8.37;50.67
71573;BME280;59408;51.032;9.410;2023-03-15T13:14:13;99162.31;;;8.89;51.33
71573;BME280;59408;51.032;9.410;2023-03-15T13:16:52;99155.34;;;7.84;49.93